sensor_id;sensor_type;location;lat;lon;timestamp;pressure;altitude;pressure_sealevel;temperature;humidity
8697;BME280;4385;48.848;8.924;2023-03-11T00:02:23;96271.78;;;19.93;100.00
8697;BME280;4385;48.848;8.924;2023-03-11T00:04:48;96270.94;;;19.93;100.00
8697;BME280;4385;48.848;8.924;2023-03-11T00:07:13;96274.41;;;19.92;100.00
8697;BME280;4385;48.848;8.924;2023-03-11T00:09:39;96276.13;;;19.91;100.00
8697;BME280;4385;48.848;8.924;2023-03-11T00:12:04;96274.47;;;19.90;100.00
8697;BME280;4385;48.848;8.924;2023-03-11T00:14:30;96285.53;;;19.91;100.00
8697;BME280;4385;48.848;8.924;2023-03-11T00:16:55;96277.78;;;19.92;100.00
8697;BME280;4385;48.848;8.924;2023-03-11T00:19:21;96285.53;;;19.91;100.00
8697;BME280;4385;48.848;8.924;2023-03-11T00:21:46;96290.66;;;19.91;100.00
8697;BME280;4385;48.848;8.924;2023-03-11T00:24:11;96290.66;;;19.91;100.00
8697;BME280;4385;48.848;8.924;2023-03-11T00:26:37;96288.09;;;19.91;100.00
8697;BME280;4385;48.848;8.924;2023-03-11T00:29:02;96292.28;;;19.92;100.00
8697;BME280;4385;48.848;8.924;2023-03-11T00:31:27;96298.25;;;19.92;100.00
8697;BME280;4385;48.848;8.924;2023-03-11T00:33:53;96283.72;;;19.93;100.00
8697;BME280;4385;48.848;8.924;2023-03-11T00:36:22;96301.63;;;19.93;100.00
8697;BME280;4385;48.848;8.924;2023-03-11T00:38:48;96299.06;;;19.93;100.00
8697;BME280;4385;48.848;8.924;2023-03-11T00:41:14;96312.75;;;19.92;100.00
8697;BME280;4385;48.848;8.924;2023-03-11T00:43:39;96317.03;;;19.91;100.00
8697;BME280;4385;48.848;8.924;2023-03-11T00:46:04;96316.22;;;19.91;100.00
8697;BME280;4385;48.848;8.924;2023-03-11T00:48:30;96309.44;;;19.90;100.00
8697;BME280;4385;48.848;8.924;2023-03-11T00:50:55;96309.44;;;19.90;100.00
8697;BME280;4385;48.848;8.924;2023-03-11T00:53:21;96319.72;;;19.88;100.00
8697;BME280;4385;48.848;8.924;2023-03-11T00:55:46;96321.47;;;19.88;100.00
8697;BME280;4385;48.848;8.924;2023-03-11T00:58:11;96320.63;;;19.87;100.00
8697;BME280;4385;48.848;8.924;2023-03-11T01:00:37;96331.69;;;19.88;100.00
8697;BME280;4385;48.848;8.924;2023-03-11T01:03:02;96345.34;;;19.87;100.00
8697;BME280;4385;48.848;8.924;2023-03-11T01:05:30;96327.47;;;19.87;100.00
8697;BME280;4385;48.848;8.924;2023-03-11T01:07:55;96330.03;;;19.87;100.00
8697;BME280;4385;48.848;8.924;2023-03-11T01:10:21;96329.13;;;19.88;100.00
8697;BME280;4385;48.848;8.924;2023-03-11T01:12:46;96340.25;;;19.87;100.00
8697;BME280;4385;48.848;8.924;2023-03-11T01:15:21;96347.84;;;19.88;100.00
8697;BME280;4385;48.848;8.924;2023-03-11T01:17:47;96341.09;;;19.87;100.00
8697;BME280;4385;48.848;8.924;2023-03-11T01:20:12;96341.09;;;19.87;100.00
8697;BME280;4385;48.848;8.924;2023-03-11T01:22:38;96352.16;;;19.88;100.00
8697;BME280;4385;48.848;8.924;2023-03-11T01:25:03;96340.31;;;19.85;100.00
8697;BME280;4385;48.848;8.924;2023-03-11T01:27:29;96346.41;;;19.83;100.00
8697;BME280;4385;48.848;8.924;2023-03-11T01:29:55;96346.47;;;19.81;100.00
8697;BME280;4385;48.848;8.924;2023-03-11T01:32:20;96347.47;;;19.78;100.00
8697;BME280;4385;48.848;8.924;2023-03-11T01:34:45;96345.78;;;19.77;100.00
8697;BME280;4385;48.848;8.924;2023-03-11T01:37:11;96346.75;;;19.75;100.00
8697;BME280;4385;48.848;8.924;2023-03-11T01:39:36;96357.97;;;19.72;100.00
8697;BME280;4385;48.848;8.924;2023-03-11T01:42:01;96349.53;;;19.70;100.00
8697;BME280;4385;48.848;8.924;2023-03-11T01:44:26;96358.25;;;19.66;100.00
8697;BME280;4385;48.848;8.924;2023-03-11T01:49:18;96325.22;;;19.61;100.00
8697;BME280;4385;48.848;8.924;2023-03-11T01:51:47;96347.31;;;19.62;100.00
8697;BME280;4385;48.848;8.924;2023-03-11T01:54:27;96347.31;;;19.62;100.00
8697;BME280;4385;48.848;8.924;2023-03-11T01:56:54;96358.38;;;19.63;100.00
8697;BME280;4385;48.848;8.924;2023-03-11T01:59:23;96364.22;;;19.65;100.00
8697;BME280;4385;48.848;8.924;2023-03-11T02:02:00;96363.34;;;19.66;100.00
8697;BME280;4385;48.848;8.924;2023-03-11T02:04:27;96363.34;;;19.66;100.00
8697;BME280;4385;48.848;8.924;2023-03-11T02:06:55;96371.75;;;19.68;100.00
8697;BME280;4385;48.848;8.924;2023-03-11T02:09:21;96368.25;;;19.71;100.00
8697;BME280;4385;48.848;8.924;2023-03-11T02:11:48;96390.28;;;19.73;100.00
8697;BME280;4385;48.848;8.924;2023-03-11T02:14:13;96392.69;;;19.76;100.00
8697;BME280;4385;48.848;8.924;2023-03-11T02:16:39;96392.69;;;19.76;100.00
8697;BME280;4385;48.848;8.924;2023-03-11T02:19:15;96390.97;;;19.77;100.00
8697;BME280;4385;48.848;8.924;2023-03-11T02:21:45;96393.59;;;19.75;100.00
8697;BME280;4385;48.848;8.924;2023-03-11T02:24:15;96376.59;;;19.74;100.00
8697;BME280;4385;48.848;8.924;2023-03-11T02:26:56;96374.94;;;19.73;100.00
8697;BME280;4385;48.848;8.924;2023-03-11T02:29:24;96369.97;;;19.70;100.00
8697;BME280;4385;48.848;8.924;2023-03-11T02:31:50;96387.94;;;19.68;100.00
8697;BME280;4385;48.848;8.924;2023-03-11T02:34:37;96382.94;;;19.65;100.00
8697;BME280;4385;48.848;8.924;2023-03-11T02:37:05;96377.13;;;19.62;100.00
8697;BME280;4385;48.848;8.924;2023-03-11T02:39:34;96371.28;;;19.60;100.00
8697;BME280;4385;48.848;8.924;2023-03-11T02:42:01;96380.75;;;19.58;100.00
8697;BME280;4385;48.848;8.924;2023-03-11T02:44:28;96370.66;;;19.54;100.00
8697;BME280;4385;48.848;8.924;2023-03-11T02:46:54;96377.56;;;19.52;100.00
8697;BME280;4385;48.848;8.924;2023-03-11T02:49:21;96383.63;;;19.50;100.00
8697;BME280;4385;48.848;8.924;2023-03-11T02:51:47;96385.34;;;19.49;100.00
8697;BME280;4385;48.848;8.924;2023-03-11T02:54:12;96354.69;;;19.49;100.00
8697;BME280;4385;48.848;8.924;2023-03-11T02:56:37;96375.97;;;19.50;100.00
8697;BME280;4385;48.848;8.924;2023-03-11T02:59:03;96362.34;;;19.49;100.00
8697;BME280;4385;48.848;8.924;2023-03-11T03:01:29;96375.06;;;19.51;100.00
8697;BME280;4385;48.848;8.924;2023-03-11T03:03:54;96382.66;;;19.52;100.00
8697;BME280;4385;48.848;8.924;2023-03-11T03:06:20;96377.56;;;19.52;100.00
8697;BME280;4385;48.848;8.924;2023-03-11T03:08:45;96401.31;;;19.54;100.00
8697;BME280;4385;48.848;8.924;2023-03-11T03:11:10;96408.06;;;19.55;100.00
8697;BME280;4385;48.848;8.924;2023-03-11T03:13:36;96420.84;;;19.55;100.00
8697;BME280;4385;48.848;8.924;2023-03-11T03:16:01;96411.53;;;19.54;100.00
8697;BME280;4385;48.848;8.924;2023-03-11T03:18:27;96420.97;;;19.52;100.00
8697;BME280;4385;48.848;8.924;2023-03-11T03:20:53;96411.66;;;19.51;100.00
8697;BME280;4385;48.848;8.924;2023-03-11T03:23:18;96400.63;;;19.51;100.00
8697;BME280;4385;48.848;8.924;2023-03-11T03:25:44;96393.00;;;19.49;100.00
8697;BME280;4385;48.848;8.924;2023-03-11T03:28:10;96396.47;;;19.48;100.00
8697;BME280;4385;48.848;8.924;2023-03-11T03:30:36;96395.69;;;19.46;100.00
8697;BME280;4385;48.848;8.924;2023-03-11T03:33:02;96394.97;;;19.44;100.00
8697;BME280;4385;48.848;8.924;2023-03-11T03:35:28;96408.63;;;19.43;100.00
8697;BME280;4385;48.848;8.924;2023-03-11T03:37:53;96392.59;;;19.39;100.00
8697;BME280;4385;48.848;8.924;2023-03-11T03:40:19;96412.19;;;19.39;100.00
8697;BME280;4385;48.848;8.924;2023-03-11T03:42:45;96411.44;;;19.37;100.00
8697;BME280;4385;48.848;8.924;2023-03-11T03:45:10;96417.44;;;19.36;100.00
8697;BME280;4385;48.848;8.924;2023-03-11T03:47:36;96430.28;;;19.34;100.00
8697;BME280;4385;48.848;8.924;2023-03-11T03:50:06;96433.81;;;19.31;100.00
8697;BME280;4385;48.848;8.924;2023-03-11T03:52:33;96435.44;;;19.33;100.00
8697;BME280;4385;48.848;8.924;2023-03-11T03:54:59;96440.56;;;19.33;100.00
8697;BME280;4385;48.848;8.924;2023-03-11T03:57:24;96439.66;;;19.34;100.00
8697;BME280;4385;48.848;8.924;2023-03-11T03:59:49;96443.00;;;19.36;100.00
8697;BME280;4385;48.848;8.924;2023-03-11T04:02:15;96447.19;;;19.37;100.00
8697;BME280;4385;48.848;8.924;2023-03-11T04:04:40;96450.53;;;19.39;100.00
8697;BME280;4385;48.848;8.924;2023-03-11T04:07:05;96456.41;;;19.41;100.00
8697;BME280;4385;48.848;8.924;2023-03-11T04:09:31;96456.41;;;19.41;100.00
8697;BME280;4385;48.848;8.924;2023-03-11T04:11:57;96458.06;;;19.42;100.00
8697;BME280;4385;48.848;8.924;2023-03-11T04:14:23;96460.59;;;19.42;100.00
8697;BME280;4385;48.848;8.924;2023-03-11T04:16:49;96457.22;;;19.41;100.00
8697;BME280;4385;48.848;8.924;2023-03-11T04:19:14;96447.00;;;19.41;100.00
8697;BME280;4385;48.848;8.924;2023-03-11T04:21:40;96446.06;;;19.44;100.00
8697;BME280;4385;48.848;8.924;2023-03-11T04:24:05;96453.72;;;19.44;100.00
8697;BME280;4385;48.848;8.924;2023-03-11T04:26:31;96459.63;;;19.44;100.00
8697;BME280;4385;48.848;8.924;2023-03-11T04:28:56;96453.72;;;19.44;100.00
8697;BME280;4385;48.848;8.924;2023-03-11T04:31:22;96458.81;;;19.44;100.00
8697;BME280;4385;48.848;8.924;2023-03-11T04:33:48;96457.22;;;19.41;100.00
8697;BME280;4385;48.848;8.924;2023-03-11T04:36:13;96457.28;;;19.40;100.00
8697;BME280;4385;48.848;8.924;2023-03-11T04:38:39;96448.94;;;19.36;100.00
8697;BME280;4385;48.848;8.924;2023-03-11T04:41:05;96449.88;;;19.34;100.00
8697;BME280;4385;48.848;8.924;2023-03-11T04:43:31;96462.78;;;19.30;100.00
8697;BME280;4385;48.848;8.924;2023-03-11T04:45:57;96462.91;;;19.27;100.00
8697;BME280;4385;48.848;8.924;2023-03-11T04:48:22;96457.88;;;19.26;100.00
8697;BME280;4385;48.848;8.924;2023-03-11T04:50:49;96455.31;;;19.26;100.00
8697;BME280;4385;48.848;8.924;2023-03-11T04:53:14;96460.41;;;19.26;100.00
8697;BME280;4385;48.848;8.924;2023-03-11T04:55:39;96461.25;;;19.26;100.00
8697;BME280;4385;48.848;8.924;2023-03-11T04:58:05;96452.75;;;19.26;100.00
8697;BME280;4385;48.848;8.924;2023-03-11T05:00:30;96470.56;;;19.27;100.00
8697;BME280;4385;48.848;8.924;2023-03-11T05:02:56;96465.47;;;19.27;100.00
8697;BME280;4385;48.848;8.924;2023-03-11T05:05:21;96469.75;;;19.27;100.00
8697;BME280;4385;48.848;8.924;2023-03-11T05:07:46;96470.56;;;19.27;100.00
8697;BME280;4385;48.848;8.924;2023-03-11T05:10:12;96471.34;;;19.29;100.00
8697;BME280;4385;48.848;8.924;2023-03-11T05:12:38;96477.28;;;19.30;100.00
8697;BME280;4385;48.848;8.924;2023-03-11T05:15:04;96470.44;;;19.30;100.00
8697;BME280;4385;48.848;8.924;2023-03-11T05:17:30;96473.00;;;19.30;100.00
8697;BME280;4385;48.848;8.924;2023-03-11T05:19:55;96475.59;;;19.29;100.00
8697;BME280;4385;48.848;8.924;2023-03-11T05:22:21;96476.44;;;19.29;100.00
8697;BME280;4385;48.848;8.924;2023-03-11T05:24:47;96482.47;;;19.28;100.00
8697;BME280;4385;48.848;8.924;2023-03-11T05:27:13;96479.91;;;19.28;100.00
8697;BME280;4385;48.848;8.924;2023-03-11T05:29:42;96491.00;;;19.27;100.00
8697;BME280;4385;48.848;8.924;2023-03-11T05:32:07;96487.69;;;19.25;100.00
8697;BME280;4385;48.848;8.924;2023-03-11T05:34:33;96492.81;;;19.25;100.00
8697;BME280;4385;48.848;8.924;2023-03-11T05:36:58;96485.28;;;19.22;100.00
8697;BME280;4385;48.848;8.924;2023-03-11T05:39:23;96489.59;;;19.20;100.00
8697;BME280;4385;48.848;8.924;2023-03-11T05:41:49;96484.56;;;19.18;100.00
8697;BME280;4385;48.848;8.924;2023-03-11T05:44:14;96493.19;;;19.16;100.00
8697;BME280;4385;48.848;8.924;2023-03-11T05:46:39;96491.63;;;19.12;100.00
8697;BME280;4385;48.848;8.924;2023-03-11T05:49:04;96494.25;;;19.10;100.00
8697;BME280;4385;48.848;8.924;2023-03-11T05:51:30;96498.53;;;19.10;100.00
8697;BME280;4385;48.848;8.924;2023-03-11T05:53:55;96498.53;;;19.10;100.00
8697;BME280;4385;48.848;8.924;2023-03-11T05:56:21;96503.59;;;19.11;100.00
8697;BME280;4385;48.848;8.924;2023-03-11T05:58:47;96499.22;;;19.13;100.00
8697;BME280;4385;48.848;8.924;2023-03-11T06:01:14;96504.28;;;19.15;100.00
8697;BME280;4385;48.848;8.924;2023-03-11T06:03:41;96515.25;;;19.17;100.00
8697;BME280;4385;48.848;8.924;2023-03-11T06:06:08;96510.03;;;19.20;100.00
8697;BME280;4385;48.848;8.924;2023-03-11T06:08:35;96513.38;;;19.22;100.00
8697;BME280;4385;48.848;8.924;2023-03-11T06:11:08;96515.00;;;19.23;100.00
8697;BME280;4385;48.848;8.924;2023-03-11T06:13:34;96513.31;;;19.24;100.00
8697;BME280;4385;48.848;8.924;2023-03-11T06:16:00;96518.34;;;19.25;100.00
8697;BME280;4385;48.848;8.924;2023-03-11T06:18:25;96513.25;;;19.25;100.00
8697;BME280;4385;48.848;8.924;2023-03-11T06:20:52;96513.25;;;19.25;100.00
8697;BME280;4385;48.848;8.924;2023-03-11T06:23:18;96508.94;;;19.26;100.00
8697;BME280;4385;48.848;8.924;2023-03-11T06:25:43;96503.03;;;19.25;100.00
8697;BME280;4385;48.848;8.924;2023-03-11T06:28:08;96508.94;;;19.26;100.00
8697;BME280;4385;48.848;8.924;2023-03-11T06:30:34;96523.47;;;19.25;100.00
8697;BME280;4385;48.848;8.924;2023-03-11T06:32:59;96532.75;;;19.26;100.00
8697;BME280;4385;48.848;8.924;2023-03-11T06:35:24;96540.44;;;19.26;100.00
8697;BME280;4385;48.848;8.924;2023-03-11T06:37:50;96543.88;;;19.25;100.00
8697;BME280;4385;48.848;8.924;2023-03-11T06:40:15;96543.09;;;19.23;100.00
8697;BME280;4385;48.848;8.924;2023-03-11T06:42:41;96547.44;;;19.21;100.00
8697;BME280;4385;48.848;8.924;2023-03-11T06:45:06;96552.66;;;19.18;100.00
8697;BME280;4385;48.848;8.924;2023-03-11T06:47:32;96561.22;;;19.17;100.00
8697;BME280;4385;48.848;8.924;2023-03-11T06:49:57;96559.63;;;19.14;100.00
8697;BME280;4385;48.848;8.924;2023-03-11T06:52:22;96566.34;;;19.17;100.00
8697;BME280;4385;48.848;8.924;2023-03-11T06:54:48;96563.00;;;19.15;100.00
8697;BME280;4385;48.848;8.924;2023-03-11T06:57:14;96570.66;;;19.15;100.00
8697;BME280;4385;48.848;8.924;2023-03-11T06:59:39;96559.69;;;19.13;100.00
8697;BME280;4385;48.848;8.924;2023-03-11T07:02:05;96562.25;;;19.13;100.00
8697;BME280;4385;48.848;8.924;2023-03-11T07:04:31;96561.34;;;19.14;100.00
8697;BME280;4385;48.848;8.924;2023-03-11T07:06:57;96572.47;;;19.13;100.00
8697;BME280;4385;48.848;8.924;2023-03-11T07:09:23;96575.03;;;19.13;100.00
8697;BME280;4385;48.848;8.924;2023-03-11T07:11:50;96577.63;;;19.11;100.00
8697;BME280;4385;48.848;8.924;2023-03-11T07:14:16;96582.75;;;19.11;100.00
8697;BME280;4385;48.848;8.924;2023-03-11T07:16:41;96586.16;;;19.10;100.00
8697;BME280;4385;48.848;8.924;2023-03-11T07:19:08;96584.44;;;19.11;100.00
8697;BME280;4385;48.848;8.924;2023-03-11T07:21:33;96585.34;;;19.10;100.00
8697;BME280;4385;48.848;8.924;2023-03-11T07:24:01;96586.22;;;19.09;100.00
8697;BME280;4385;48.848;8.924;2023-03-11T07:26:27;96578.66;;;19.05;100.00
8697;BME280;4385;48.848;8.924;2023-03-11T07:28:54;96591.47;;;19.04;100.00
8697;BME280;4385;48.848;8.924;2023-03-11T07:31:22;96590.78;;;19.00;100.00
8697;BME280;4385;48.848;8.924;2023-03-11T07:33:49;96597.66;;;18.98;100.00
8697;BME280;4385;48.848;8.924;2023-03-11T07:36:17;96600.22;;;18.98;100.00
8697;BME280;4385;48.848;8.924;2023-03-11T07:38:44;96608.84;;;18.96;100.00
8697;BME280;4385;48.848;8.924;2023-03-11T07:41:10;96608.91;;;18.94;100.00
8697;BME280;4385;48.848;8.924;2023-03-11T07:43:36;96610.59;;;18.93;100.00
8697;BME280;4385;48.848;8.924;2023-03-11T07:46:12;96608.94;;;18.92;100.00
8697;BME280;4385;48.848;8.924;2023-03-11T07:48:40;96614.97;;;18.90;100.00
8697;BME280;4385;48.848;8.924;2023-03-11T07:51:09;96620.94;;;18.90;100.00
8697;BME280;4385;48.848;8.924;2023-03-11T07:53:34;96626.03;;;18.90;100.00
8697;BME280;4385;48.848;8.924;2023-03-11T07:56:00;96626.94;;;18.89;100.00
8697;BME280;4385;48.848;8.924;2023-03-11T07:58:26;96627.00;;;18.88;100.00
8697;BME280;4385;48.848;8.924;2023-03-11T08:00:52;96626.16;;;18.87;100.00
8697;BME280;4385;48.848;8.924;2023-03-11T08:03:18;96620.16;;;18.88;100.00
8697;BME280;4385;48.848;8.924;2023-03-11T08:05:44;96634.59;;;18.89;100.00
8697;BME280;4385;48.848;8.924;2023-03-11T08:08:09;96624.38;;;18.89;100.00
8697;BME280;4385;48.848;8.924;2023-03-11T08:10:36;96634.53;;;18.91;100.00
8697;BME280;4385;48.848;8.924;2023-03-11T08:13:01;96635.28;;;18.93;100.00
8697;BME280;4385;48.848;8.924;2023-03-11T08:15:26;96635.28;;;18.93;100.00
8697;BME280;4385;48.848;8.924;2023-03-11T08:17:52;96631.88;;;18.94;100.00
8697;BME280;4385;48.848;8.924;2023-03-11T08:20:17;96642.09;;;18.94;100.00
8697;BME280;4385;48.848;8.924;2023-03-11T08:22:42;96640.41;;;18.93;100.00
8697;BME280;4385;48.848;8.924;2023-03-11T08:25:08;96634.47;;;18.92;100.00
8697;BME280;4385;48.848;8.924;2023-03-11T08:27:34;96633.63;;;18.92;100.00
8697;BME280;4385;48.848;8.924;2023-03-11T08:29:59;96645.63;;;18.90;100.00
8697;BME280;4385;48.848;8.924;2023-03-11T08:32:24;96649.06;;;18.89;100.00
8697;BME280;4385;48.848;8.924;2023-03-11T08:34:50;96656.78;;;18.87;100.00
8697;BME280;4385;48.848;8.924;2023-03-11T08:37:15;96652.53;;;18.88;100.00
8697;BME280;4385;48.848;8.924;2023-03-11T08:39:40;96651.72;;;18.86;100.00
8697;BME280;4385;48.848;8.924;2023-03-11T08:42:05;96652.63;;;18.85;100.00
8697;BME280;4385;48.848;8.924;2023-03-11T08:44:31;96650.94;;;18.84;100.00
8697;BME280;4385;48.848;8.924;2023-03-11T08:46:56;96655.25;;;18.83;100.00
8697;BME280;4385;48.848;8.924;2023-03-11T08:49:22;96668.00;;;18.83;100.00
8697;BME280;4385;48.848;8.924;2023-03-11T08:51:47;96668.81;;;18.84;100.00
8697;BME280;4385;48.848;8.924;2023-03-11T08:54:13;96662.84;;;18.85;100.00
8697;BME280;4385;48.848;8.924;2023-03-11T08:56:38;96666.16;;;18.87;100.00
8697;BME280;4385;48.848;8.924;2023-03-11T08:59:03;96666.09;;;18.88;100.00
8697;BME280;4385;48.848;8.924;2023-03-11T09:01:29;96670.34;;;18.89;100.00
8697;BME280;4385;48.848;8.924;2023-03-11T09:03:54;96666.03;;;18.90;100.00
8697;BME280;4385;48.848;8.924;2023-03-11T09:06:20;96661.72;;;18.92;100.00
8697;BME280;4385;48.848;8.924;2023-03-11T09:08:46;96660.00;;;18.92;100.00
8697;BME280;4385;48.848;8.924;2023-03-11T09:11:13;96665.91;;;18.93;100.00
8697;BME280;4385;48.848;8.924;2023-03-11T09:13:40;96665.91;;;18.93;100.00
8697;BME280;4385;48.848;8.924;2023-03-11T09:16:08;96676.13;;;18.93;100.00
8697;BME280;4385;48.848;8.924;2023-03-11T09:18:36;96676.13;;;18.93;100.00
8697;BME280;4385;48.848;8.924;2023-03-11T09:21:01;96678.91;;;18.87;100.00
8697;BME280;4385;48.848;8.924;2023-03-11T09:23:26;96681.69;;;18.80;100.00
8697;BME280;4385;48.848;8.924;2023-03-11T09:25:52;96684.47;;;18.74;100.00
8697;BME280;4385;48.848;8.924;2023-03-11T09:28:17;96688.91;;;18.69;100.00
8697;BME280;4385;48.848;8.924;2023-03-11T09:30:43;96688.31;;;18.62;100.00
8697;BME280;4385;48.848;8.924;2023-03-11T09:33:08;96686.03;;;18.54;100.00
8697;BME280;4385;48.848;8.924;2023-03-11T09:35:33;96694.78;;;18.47;100.00
8697;BME280;4385;48.848;8.924;2023-03-11T09:37:59;96683.97;;;18.40;100.00
8697;BME280;4385;48.848;8.924;2023-03-11T09:40:25;96687.56;;;18.35;98.75
8697;BME280;4385;48.848;8.924;2023-03-11T09:45:26;96685.28;;;18.27;93.72
8697;BME280;4385;48.848;8.924;2023-03-11T09:50:44;96681.94;;;18.25;93.21
8697;BME280;4385;48.848;8.924;2023-03-11T09:55:57;96681.88;;;18.26;94.06
8697;BME280;4385;48.848;8.924;2023-03-11T09:58:42;96692.09;;;18.26;94.21
8697;BME280;4385;48.848;8.924;2023-03-11T10:01:28;96683.59;;;18.26;94.70
8697;BME280;4385;48.848;8.924;2023-03-11T10:03:56;96691.25;;;18.26;94.45
8697;BME280;4385;48.848;8.924;2023-03-11T10:06:28;96684.47;;;18.25;95.74
8697;BME280;4385;48.848;8.924;2023-03-11T10:17:18;96686.13;;;18.26;99.30
8697;BME280;4385;48.848;8.924;2023-03-11T10:20:03;96680.22;;;18.25;99.40
8697;BME280;4385;48.848;8.924;2023-03-11T10:28:04;96687.09;;;18.23;100.00
8697;BME280;4385;48.848;8.924;2023-03-11T10:30:40;96685.44;;;18.22;100.00
8697;BME280;4385;48.848;8.924;2023-03-11T10:33:20;96681.25;;;18.19;100.00
8697;BME280;4385;48.848;8.924;2023-03-11T10:35:54;96693.19;;;18.19;100.00
8697;BME280;4385;48.848;8.924;2023-03-11T10:38:25;96691.50;;;18.18;100.00
8697;BME280;4385;48.848;8.924;2023-03-11T10:40:56;96683.84;;;18.18;100.00
8697;BME280;4385;48.848;8.924;2023-03-11T10:43:31;96682.97;;;18.19;100.00
8697;BME280;4385;48.848;8.924;2023-03-11T10:45:58;96680.50;;;18.17;100.00
8697;BME280;4385;48.848;8.924;2023-03-11T10:48:24;96676.25;;;18.16;100.00
8697;BME280;4385;48.848;8.924;2023-03-11T10:50:55;96680.53;;;18.16;100.00
8697;BME280;4385;48.848;8.924;2023-03-11T10:53:21;96681.41;;;18.15;100.00
8697;BME280;4385;48.848;8.924;2023-03-11T10:55:51;96683.13;;;18.14;100.00
8697;BME280;4385;48.848;8.924;2023-03-11T10:58:20;96683.94;;;18.15;100.00
8697;BME280;4385;48.848;8.924;2023-03-11T11:01:14;96692.41;;;18.17;100.00
8697;BME280;4385;48.848;8.924;2023-03-11T11:03:46;96683.78;;;18.19;100.00
8697;BME280;4385;48.848;8.924;2023-03-11T11:06:25;96692.13;;;18.25;100.00
8697;BME280;4385;48.848;8.924;2023-03-11T11:09:17;96691.97;;;18.29;100.00
8697;BME280;4385;48.848;8.924;2023-03-11T11:12:15;96697.72;;;18.36;100.00
8697;BME280;4385;48.848;8.924;2023-03-11T11:14:51;96688.22;;;18.40;100.00
8697;BME280;4385;48.848;8.924;2023-03-11T11:17:26;96694.94;;;18.42;100.00
8697;BME280;4385;48.848;8.924;2023-03-11T11:19:53;96702.53;;;18.44;100.00
8697;BME280;4385;48.848;8.924;2023-03-11T11:22:21;96693.09;;;18.46;100.00
8697;BME280;4385;48.848;8.924;2023-03-11T11:24:48;96708.34;;;18.48;100.00
8697;BME280;4385;48.848;8.924;2023-03-11T11:27:20;96701.53;;;18.48;100.00
8697;BME280;4385;48.848;8.924;2023-03-11T11:29:47;96698.09;;;18.49;100.00
8697;BME280;4385;48.848;8.924;2023-03-11T11:32:26;96690.38;;;18.51;100.00
8697;BME280;4385;48.848;8.924;2023-03-11T11:34:56;96687.78;;;18.52;100.00
8697;BME280;4385;48.848;8.924;2023-03-11T11:37:23;96689.47;;;18.53;100.00
8697;BME280;4385;48.848;8.924;2023-03-11T11:39:57;96684.38;;;18.53;100.00
8697;BME280;4385;48.848;8.924;2023-03-11T11:42:25;96682.78;;;18.49;100.00
8697;BME280;4385;48.848;8.924;2023-03-11T11:44:56;96679.47;;;18.47;100.00
8697;BME280;4385;48.848;8.924;2023-03-11T11:47:29;96682.91;;;18.46;100.00
8697;BME280;4385;48.848;8.924;2023-03-11T11:50:00;96670.19;;;18.44;100.00
8697;BME280;4385;48.848;8.924;2023-03-11T11:52:32;96673.66;;;18.43;100.00
8697;BME280;4385;48.848;8.924;2023-03-11T11:55:20;96675.47;;;18.40;100.00
8697;BME280;4385;48.848;8.924;2023-03-11T11:57:47;96674.69;;;18.38;100.00
8697;BME280;4385;48.848;8.924;2023-03-11T12:01:04;96680.66;;;18.37;100.00
8697;BME280;4385;48.848;8.924;2023-03-11T12:17:34;96649.31;;;18.35;100.00
8697;BME280;4385;48.848;8.924;2023-03-11T12:20:30;96646.91;;;18.30;100.00
8697;BME280;4385;48.848;8.924;2023-03-11T12:23:16;96652.97;;;18.26;100.00
8697;BME280;4385;48.848;8.924;2023-03-11T12:25:58;96646.41;;;18.20;100.00
8697;BME280;4385;48.848;8.924;2023-03-11T12:31:08;96636.47;;;18.11;92.50
8697;BME280;4385;48.848;8.924;2023-03-11T12:33:39;96641.69;;;18.07;90.51
8697;BME280;4385;48.848;8.924;2023-03-11T12:36:07;96648.59;;;18.04;89.11
8697;BME280;4385;48.848;8.924;2023-03-11T12:38:46;96646.25;;;17.98;85.90
8697;BME280;4385;48.848;8.924;2023-03-11T12:49:26;96657.69;;;17.86;78.48
8697;BME280;4385;48.848;8.924;2023-03-11T12:54:41;96648.50;;;17.81;76.37
8697;BME280;4385;48.848;8.924;2023-03-11T13:00:12;96641.88;;;17.76;73.45
8697;BME280;4385;48.848;8.924;2023-03-11T13:05:49;96638.59;;;17.72;70.49
8697;BME280;4385;48.848;8.924;2023-03-11T13:08:55;96632.72;;;17.70;68.48
8697;BME280;4385;48.848;8.924;2023-03-11T13:11:46;96629.38;;;17.68;68.28
8697;BME280;4385;48.848;8.924;2023-03-11T13:14:28;96636.25;;;17.66;68.74
8697;BME280;4385;48.848;8.924;2023-03-11T13:16:54;96633.75;;;17.64;67.28
8697;BME280;4385;48.848;8.924;2023-03-11T13:21:55;96640.72;;;17.59;65.79
8697;BME280;4385;48.848;8.924;2023-03-11T13:33:02;96643.59;;;17.48;63.77
8697;BME280;4385;48.848;8.924;2023-03-11T13:35:47;96645.34;;;17.46;63.67
8697;BME280;4385;48.848;8.924;2023-03-11T13:40:53;96652.38;;;17.39;62.39
8697;BME280;4385;48.848;8.924;2023-03-11T13:45:51;96646.56;;;17.34;61.71
8697;BME280;4385;48.848;8.924;2023-03-11T13:48:35;96651.66;;;17.34;60.78
8697;BME280;4385;48.848;8.924;2023-03-11T13:51:12;96644.09;;;17.32;60.49
8697;BME280;4385;48.848;8.924;2023-03-11T13:53:47;96636.50;;;17.31;60.77
8697;BME280;4385;48.848;8.924;2023-03-11T13:56:17;96645.81;;;17.30;60.27
8697;BME280;4385;48.848;8.924;2023-03-11T13:58:45;96650.16;;;17.28;61.04
8697;BME280;4385;48.848;8.924;2023-03-11T14:01:14;96651.03;;;17.27;60.12
8697;BME280;4385;48.848;8.924;2023-03-11T14:03:41;96661.19;;;17.27;59.55
8697;BME280;4385;48.848;8.924;2023-03-11T14:06:12;96655.31;;;17.27;59.62
8697;BME280;4385;48.848;8.924;2023-03-11T14:08:38;96646.03;;;17.24;58.67
8697;BME280;4385;48.848;8.924;2023-03-11T14:13:52;96647.75;;;17.24;58.91
8697;BME280;4385;48.848;8.924;2023-03-11T14:16:32;96652.00;;;17.23;59.02
8697;BME280;4385;48.848;8.924;2023-03-11T14:19:12;96655.41;;;17.24;58.83
8697;BME280;4385;48.848;8.924;2023-03-11T14:21:42;96650.31;;;17.24;58.50
8697;BME280;4385;48.848;8.924;2023-03-11T14:24:16;96654.56;;;17.23;58.13
8697;BME280;4385;48.848;8.924;2023-03-11T14:26:42;96640.16;;;17.22;57.35
8697;BME280;4385;48.848;8.924;2023-03-11T14:29:11;96646.13;;;17.21;58.12
8697;BME280;4385;48.848;8.924;2023-03-11T14:31:41;96648.72;;;17.19;56.86
8697;BME280;4385;48.848;8.924;2023-03-11T14:34:24;96645.34;;;17.19;57.90
8697;BME280;4385;48.848;8.924;2023-03-11T14:36:53;96644.47;;;17.20;57.71